createdAt,value
2018-04-13T00:00:22.334Z,4.50
2018-04-13T00:01:22.269Z,4.50
2018-04-13T00:02:22.263Z,4.50
2018-04-13T00:03:22.208Z,4.40
2018-04-13T00:04:22.171Z,4.20
2018-04-13T00:05:22.153Z,4.20
2018-04-13T00:06:22.120Z,5.10
2018-04-13T00:07:22.052Z,4.50
2018-04-13T00:08:22.029Z,3.90
2018-04-13T00:09:21.988Z,4.00
2018-04-13T00:10:21.946Z,3.90
2018-04-13T00:11:21.928Z,4.00
2018-04-13T00:12:21.894Z,4.20
2018-04-13T00:13:21.825Z,3.90
2018-04-13T00:14:21.810Z,3.80
2018-04-13T00:15:21.813Z,3.50
2018-04-13T00:16:21.709Z,3.50
2018-04-13T00:17:21.731Z,4.00
2018-04-13T00:18:21.780Z,3.50
2018-04-13T00:19:21.615Z,3.50
2018-04-13T00:20:21.568Z,3.10
2018-04-13T00:21:21.550Z,3.00
2018-04-13T00:22:21.501Z,3.60
2018-04-13T00:23:21.493Z,3.70
2018-04-13T00:24:21.450Z,3.60
2018-04-13T00:25:21.597Z,3.60
2018-04-13T00:26:21.359Z,3.60
2018-04-13T00:27:21.336Z,3.80
2018-04-13T00:28:21.307Z,3.70
2018-04-13T00:29:21.245Z,4.70
2018-04-13T00:30:21.238Z,4.00
2018-04-13T00:31:21.172Z,3.90
2018-04-13T00:32:21.153Z,4.80
2018-04-13T00:33:21.124Z,4.40
2018-04-13T00:34:21.067Z,4.90
2018-04-13T00:35:21.049Z,4.80
2018-04-13T00:36:20.991Z,5.10
2018-04-13T00:37:20.978Z,4.90
2018-04-13T00:38:20.930Z,4.60
2018-04-13T00:39:20.883Z,4.90
2018-04-13T00:40:20.871Z,4.60
2018-04-13T00:41:20.858Z,4.10
2018-04-13T00:42:20.779Z,4.70
2018-04-13T00:43:20.752Z,5.20
2018-04-13T00:44:21.652Z,5.20
2018-04-13T00:45:20.699Z,5.20
2018-04-13T00:46:20.638Z,4.00
2018-04-13T00:47:20.584Z,4.60
2018-04-13T00:48:20.573Z,5.00
2018-04-13T00:49:20.532Z,5.60
2018-04-13T00:50:20.501Z,5.60
2018-04-13T00:51:20.490Z,6.40
2018-04-13T00:52:20.406Z,6.00
2018-04-13T00:53:20.375Z,6.00
2018-04-13T00:54:20.345Z,6.10
2018-04-13T00:55:20.278Z,6.70
2018-04-13T00:56:20.323Z,6.80
2018-04-13T00:57:20.217Z,6.60
2018-04-13T00:58:20.185Z,6.80
2018-04-13T00:59:20.145Z,6.80
2018-04-13T01:00:20.106Z,6.70
2018-04-13T01:01:20.092Z,5.50
2018-04-13T01:02:20.038Z,5.80
2018-04-13T01:03:20.173Z,5.90
2018-04-13T01:04:19.964Z,6.00
2018-04-13T01:05:19.943Z,6.40
2018-04-13T01:06:19.929Z,5.90
2018-04-13T01:07:19.864Z,6.40
2018-04-13T01:08:19.834Z,5.80
2018-04-13T01:09:19.774Z,6.20
2018-04-13T01:10:19.765Z,5.50
2018-04-13T01:11:19.703Z,5.20
2018-04-13T01:12:19.654Z,4.70
2018-04-13T01:13:19.626Z,4.60
2018-04-13T01:14:19.600Z,4.70
2018-04-13T01:15:19.608Z,5.20
2018-04-13T01:16:19.547Z,5.20
2018-04-13T01:17:19.487Z,5.00
2018-04-13T01:18:19.503Z,5.30
2018-04-13T01:19:19.409Z,5.10
2018-04-13T01:20:19.372Z,5.30
2018-04-13T01:21:19.317Z,4.80
2018-04-13T01:22:19.317Z,5.30
2018-04-13T01:23:19.265Z,4.70
2018-04-13T01:24:19.316Z,4.70
2018-04-13T01:25:19.252Z,5.20
2018-04-13T01:26:19.165Z,5.00
2018-04-13T01:27:19.145Z,5.20
2018-04-13T01:28:19.078Z,5.70
2018-04-13T01:29:19.042Z,5.70
2018-04-13T01:30:19.007Z,5.70
2018-04-13T01:31:18.972Z,5.30
2018-04-13T01:32:18.963Z,4.40
2018-04-13T01:33:18.937Z,5.10
2018-04-13T01:34:18.886Z,5.30
2018-04-13T01:35:18.825Z,5.50
2018-04-13T01:36:18.813Z,4.70
2018-04-13T01:37:18.757Z,5.40
2018-04-13T01:38:18.715Z,5.60
2018-04-13T01:39:18.683Z,6.00
2018-04-13T01:40:18.667Z,5.10
2018-04-13T01:41:18.616Z,4.80
2018-04-13T01:42:18.583Z,4.70
2018-04-13T01:43:18.542Z,5.10
2018-04-13T01:44:18.501Z,4.90
2018-04-13T01:45:18.464Z,4.50
2018-04-13T01:46:18.404Z,4.50
2018-04-13T01:47:18.370Z,4.60
2018-04-13T01:48:18.330Z,5.20
2018-04-13T01:49:18.328Z,5.60
2018-04-13T01:50:18.279Z,6.00
2018-04-13T01:51:18.221Z,5.10
2018-04-13T01:52:18.187Z,4.80
2018-04-13T01:53:18.210Z,6.20
2018-04-13T01:54:18.124Z,20.40
2018-04-13T01:55:18.192Z,16.70
2018-04-13T01:56:18.043Z,24.20
2018-04-13T01:57:18.041Z,24.40
2018-04-13T01:58:18.006Z,13.40
2018-04-13T01:59:17.947Z,10.40
2018-04-13T02:00:17.897Z,6.10
2018-04-13T02:01:17.848Z,5.30
2018-04-13T02:02:17.813Z,5.60
2018-04-13T02:03:17.803Z,4.70
2018-04-13T02:04:17.752Z,5.40
2018-04-13T02:05:17.710Z,6.20
2018-04-13T02:06:17.688Z,6.80
2018-04-13T02:07:17.684Z,5.80
2018-04-13T02:08:17.596Z,5.10
2018-04-13T02:09:17.592Z,5.20
2018-04-13T02:10:17.526Z,5.40
2018-04-13T02:11:17.521Z,5.40
2018-04-13T02:12:17.479Z,4.80
2018-04-13T02:13:17.425Z,5.20
2018-04-13T02:14:17.428Z,5.40
2018-04-13T02:15:17.378Z,4.70
2018-04-13T02:16:17.303Z,5.00
2018-04-13T02:17:17.312Z,7.70
2018-04-13T02:18:17.246Z,6.90
2018-04-13T02:19:17.201Z,6.30
2018-04-13T02:20:17.143Z,5.70
2018-04-13T02:21:17.105Z,5.50
2018-04-13T02:22:17.121Z,6.20
2018-04-13T02:23:17.048Z,6.50
2018-04-13T02:24:17.007Z,7.30
2018-04-13T02:25:16.960Z,6.90
2018-04-13T02:26:16.905Z,6.80
2018-04-13T02:27:16.870Z,7.50
2018-04-13T02:28:16.857Z,6.10
2018-04-13T02:29:16.801Z,7.50
2018-04-13T02:30:17.633Z,6.10
2018-04-13T02:31:16.721Z,6.20
2018-04-13T02:32:16.706Z,6.30
2018-04-13T02:33:16.669Z,6.30
2018-04-13T02:34:16.703Z,5.30
2018-04-13T02:35:16.617Z,6.30
2018-04-13T02:36:16.547Z,6.10
2018-04-13T02:37:16.522Z,18.70
2018-04-13T02:38:16.478Z,26.30
2018-04-13T02:39:16.450Z,13.80
2018-04-13T02:40:16.414Z,11.90
2018-04-13T02:41:16.350Z,8.20
2018-04-13T02:42:16.328Z,19.20
2018-04-13T02:43:16.296Z,14.50
2018-04-13T02:44:16.240Z,7.00
2018-04-13T02:45:16.199Z,8.00
2018-04-13T02:46:16.172Z,13.30
2018-04-13T02:47:16.120Z,31.70
2018-04-13T02:48:16.097Z,39.70
2018-04-13T02:49:16.074Z,10.80
2018-04-13T02:50:16.071Z,7.10
2018-04-13T02:51:15.988Z,11.70
2018-04-13T02:52:15.929Z,8.90
2018-04-13T02:53:15.903Z,9.10
2018-04-13T02:54:15.850Z,7.90
2018-04-13T02:55:15.828Z,8.40
2018-04-13T02:56:15.794Z,7.50
2018-04-13T02:57:15.737Z,7.60
2018-04-13T02:58:15.736Z,7.80
2018-04-13T02:59:15.676Z,6.20
2018-04-13T03:00:15.638Z,5.20
2018-04-13T03:01:15.570Z,5.40
2018-04-13T03:02:15.583Z,5.90
2018-04-13T03:03:15.497Z,5.80
2018-04-13T03:04:15.482Z,5.90
2018-04-13T03:05:15.427Z,5.60
2018-04-13T03:06:15.399Z,5.40
2018-04-13T03:07:15.355Z,5.80
2018-04-13T03:08:15.318Z,6.30
2018-04-13T03:09:15.282Z,5.80
2018-04-13T03:10:15.222Z,6.50
2018-04-13T03:11:15.223Z,6.60
2018-04-13T03:12:15.157Z,5.80
2018-04-13T03:13:15.145Z,5.90
2018-04-13T03:14:15.086Z,5.80
2018-04-13T03:15:15.099Z,5.70
2018-04-13T03:16:15.028Z,5.90
2018-04-13T03:17:14.965Z,6.20
2018-04-13T03:18:14.970Z,7.10
2018-04-13T03:19:14.890Z,7.60
2018-04-13T03:20:14.879Z,6.70
2018-04-13T03:21:14.820Z,6.70
2018-04-13T03:22:14.772Z,7.50
2018-04-13T03:23:14.793Z,6.50
2018-04-13T03:24:14.708Z,6.00
2018-04-13T03:25:14.661Z,6.50
2018-04-13T03:26:14.626Z,6.40
2018-04-13T03:27:14.583Z,6.30
2018-04-13T03:28:14.532Z,6.70
2018-04-13T03:29:14.511Z,7.00
2018-04-13T03:30:14.448Z,7.30
2018-04-13T03:31:14.446Z,7.60
2018-04-13T03:32:14.397Z,8.70
2018-04-13T03:33:14.356Z,9.10
2018-04-13T03:34:14.362Z,7.10
2018-04-13T03:35:14.263Z,6.70
2018-04-13T03:36:14.252Z,8.20
2018-04-13T03:37:14.211Z,8.20
2018-04-13T03:38:14.164Z,8.70
2018-04-13T03:39:14.120Z,8.30
2018-04-13T03:40:14.080Z,8.90
2018-04-13T03:41:14.060Z,9.00
2018-04-13T03:42:14.008Z,9.30
2018-04-13T03:43:13.960Z,9.70
2018-04-13T03:44:13.932Z,9.30
2018-04-13T03:45:13.889Z,6.90
2018-04-13T03:46:13.884Z,6.20
2018-04-13T03:47:13.818Z,6.30
2018-04-13T03:48:13.791Z,6.20
2018-04-13T03:49:13.747Z,6.50
2018-04-13T03:50:13.709Z,6.30
2018-04-13T03:51:13.667Z,6.30
2018-04-13T03:52:13.603Z,7.20
2018-04-13T03:53:13.620Z,7.60
2018-04-13T03:54:13.657Z,7.70
2018-04-13T03:55:13.491Z,7.20
2018-04-13T03:56:13.453Z,16.50
2018-04-13T03:57:13.422Z,8.20
2018-04-13T03:58:13.386Z,6.90
2018-04-13T03:59:13.384Z,6.90
2018-04-13T04:00:13.286Z,7.70
2018-04-13T04:01:13.285Z,6.90
2018-04-13T04:02:13.264Z,7.20
2018-04-13T04:03:13.206Z,8.10
2018-04-13T04:04:13.141Z,7.70
2018-04-13T04:05:13.151Z,7.90
2018-04-13T04:06:13.080Z,8.30
2018-04-13T04:07:13.065Z,16.10
2018-04-13T04:08:12.996Z,27.30
2018-04-13T04:09:12.948Z,16.20
2018-04-13T04:10:12.922Z,14.40
2018-04-13T04:11:12.898Z,8.60
2018-04-13T04:12:12.860Z,8.80
2018-04-13T04:13:12.801Z,8.90
2018-04-13T04:14:12.775Z,8.10
2018-04-13T04:15:12.734Z,7.70
2018-04-13T04:16:12.729Z,7.00
2018-04-13T04:17:12.658Z,7.20
2018-04-13T04:18:12.597Z,7.70
2018-04-13T04:19:12.585Z,7.20
2018-04-13T04:20:12.516Z,7.50
2018-04-13T04:21:12.506Z,6.90
2018-04-13T04:22:12.453Z,9.10
2018-04-13T04:23:12.412Z,8.10
2018-04-13T04:24:12.419Z,9.30
2018-04-13T04:25:12.356Z,7.50
2018-04-13T04:26:12.305Z,7.20
2018-04-13T04:27:12.260Z,8.90
2018-04-13T04:28:12.197Z,8.60
2018-04-13T04:29:12.181Z,9.10
2018-04-13T04:30:12.127Z,9.00
2018-04-13T04:31:12.093Z,8.70
2018-04-13T04:32:12.100Z,8.00
2018-04-13T04:33:12.033Z,8.50
2018-04-13T04:34:11.982Z,8.40
2018-04-13T04:35:11.941Z,7.40
2018-04-13T04:36:11.925Z,8.50
2018-04-13T04:37:11.867Z,8.70
2018-04-13T04:38:11.823Z,9.60
2018-04-13T04:39:11.790Z,8.00
2018-04-13T04:40:11.735Z,8.10
2018-04-13T04:41:11.727Z,8.70
2018-04-13T04:42:11.673Z,8.40
2018-04-13T04:43:11.644Z,8.10
2018-04-13T04:44:11.600Z,8.30
2018-04-13T04:45:11.558Z,8.00
2018-04-13T04:46:11.513Z,6.70
2018-04-13T04:47:11.522Z,7.20
2018-04-13T04:48:11.430Z,7.00
2018-04-13T04:49:11.384Z,7.60
2018-04-13T04:50:11.388Z,6.20
2018-04-13T04:51:11.350Z,6.60
2018-04-13T04:52:11.291Z,7.20
2018-04-13T04:53:11.270Z,7.00
2018-04-13T04:54:11.219Z,7.10
2018-04-13T04:55:11.178Z,6.70
2018-04-13T04:56:11.147Z,6.70
2018-04-13T04:57:11.083Z,6.90
2018-04-13T04:58:11.056Z,7.00
2018-04-13T04:59:11.016Z,7.70
2018-04-13T05:00:10.966Z,8.00
2018-04-13T05:01:10.960Z,7.00
2018-04-13T05:02:10.897Z,6.60
2018-04-13T05:03:10.840Z,7.10
2018-04-13T05:04:10.809Z,6.90
2018-04-13T05:05:10.780Z,7.20
2018-04-13T05:06:10.756Z,6.70
2018-04-13T05:07:10.689Z,7.30
2018-04-13T05:08:10.651Z,7.90
2018-04-13T05:09:10.631Z,8.60
2018-04-13T05:10:10.572Z,9.70
2018-04-13T05:11:10.540Z,10.40
2018-04-13T05:12:10.502Z,9.90
2018-04-13T05:13:10.465Z,9.10
2018-04-13T05:14:10.443Z,8.90
2018-04-13T05:15:10.403Z,7.80
2018-04-13T05:16:10.358Z,7.90
2018-04-13T05:17:10.318Z,7.60
2018-04-13T05:18:10.300Z,7.70
2018-04-13T05:19:10.228Z,7.50
2018-04-13T05:20:10.190Z,7.30
2018-04-13T05:21:10.179Z,7.20
2018-04-13T05:22:10.114Z,7.60
2018-04-13T05:23:10.086Z,7.10
2018-04-13T05:24:10.056Z,6.70
2018-04-13T05:25:10.019Z,7.30
2018-04-13T05:26:09.988Z,6.80
2018-04-13T05:27:09.951Z,6.90
2018-04-13T05:28:09.903Z,7.60
2018-04-13T05:29:09.890Z,7.30
2018-04-13T05:30:09.806Z,7.70
2018-04-13T05:31:09.790Z,6.80
2018-04-13T05:32:09.739Z,7.10
2018-04-13T05:33:09.693Z,6.90
2018-04-13T05:34:09.662Z,6.60
2018-04-13T05:35:09.638Z,7.40
2018-04-13T05:36:09.629Z,7.20
2018-04-13T05:37:09.543Z,6.70
2018-04-13T05:38:09.520Z,6.90
2018-04-13T05:39:10.177Z,9.90
2018-04-13T05:40:09.419Z,11.00
2018-04-13T05:41:09.386Z,8.50
2018-04-13T05:42:09.359Z,7.20
2018-04-13T05:43:09.315Z,7.10
2018-04-13T05:44:09.311Z,7.00
2018-04-13T05:45:09.252Z,7.50
2018-04-13T05:46:09.260Z,8.00
2018-04-13T05:47:09.161Z,7.70
2018-04-13T05:48:09.122Z,7.10
2018-04-13T05:49:09.113Z,7.60
2018-04-13T05:50:09.075Z,7.60
2018-04-13T05:51:09.009Z,7.20
2018-04-13T05:52:08.977Z,6.70
2018-04-13T05:53:08.955Z,7.30
2018-04-13T05:54:08.909Z,7.10
2018-04-13T05:55:08.880Z,6.80
2018-04-13T05:56:08.841Z,6.90
2018-04-13T05:57:08.793Z,7.20
2018-04-13T05:58:08.767Z,7.60
2018-04-13T05:59:08.714Z,7.20
2018-04-13T06:00:08.737Z,6.60
2018-04-13T06:01:08.630Z,6.80
2018-04-13T06:02:08.595Z,7.50
2018-04-13T06:03:08.569Z,8.00
2018-04-13T06:04:08.543Z,8.00
2018-04-13T06:05:08.472Z,8.10
2018-04-13T06:06:08.524Z,7.80
2018-04-13T06:07:08.415Z,7.90
2018-04-13T06:08:08.366Z,8.50
2018-04-13T06:09:08.329Z,8.20
2018-04-13T06:10:08.324Z,8.00
2018-04-13T06:11:08.274Z,8.10
2018-04-13T06:12:08.240Z,8.00
2018-04-13T06:13:08.167Z,7.90
2018-04-13T06:14:08.143Z,7.60
2018-04-13T06:15:08.111Z,7.50
2018-04-13T06:16:08.065Z,7.20
2018-04-13T06:17:08.026Z,7.50
2018-04-13T06:18:07.995Z,7.80
2018-04-13T06:19:07.967Z,7.00
2018-04-13T06:20:07.928Z,7.30
2018-04-13T06:21:07.868Z,7.60
2018-04-13T06:22:07.860Z,7.30
2018-04-13T06:23:07.843Z,7.60
2018-04-13T06:24:07.755Z,6.60
2018-04-13T06:25:07.735Z,6.50
2018-04-13T06:26:07.716Z,6.30
2018-04-13T06:27:07.661Z,6.10
2018-04-13T06:28:07.636Z,5.40
2018-04-13T06:29:07.626Z,5.80
2018-04-13T06:30:07.567Z,7.10
2018-04-13T06:31:07.529Z,6.80
2018-04-13T06:32:07.459Z,7.10
2018-04-13T06:33:07.492Z,8.10
2018-04-13T06:34:07.443Z,7.00
2018-04-13T06:35:07.364Z,8.10
2018-04-13T06:36:07.334Z,6.90
2018-04-13T06:37:07.332Z,6.90
2018-04-13T06:38:07.272Z,6.20
2018-04-13T06:39:07.231Z,6.80
2018-04-13T06:40:07.185Z,5.20
2018-04-13T06:41:07.227Z,5.10
2018-04-13T06:42:07.112Z,5.00
2018-04-13T06:43:07.086Z,5.10
2018-04-13T06:44:07.036Z,5.60
2018-04-13T06:45:07.027Z,5.80
2018-04-13T06:46:06.972Z,5.70
2018-04-13T06:47:06.934Z,5.70
2018-04-13T06:48:06.906Z,5.10
2018-04-13T06:49:06.842Z,5.50
2018-04-13T06:50:06.849Z,5.40
2018-04-13T06:51:06.782Z,4.70
2018-04-13T06:52:06.783Z,5.10
2018-04-13T06:53:06.712Z,4.50
2018-04-13T06:54:06.666Z,4.10
2018-04-13T06:55:06.663Z,4.00
2018-04-13T06:56:06.660Z,4.10
2018-04-13T06:57:06.599Z,4.20
2018-04-13T06:58:06.543Z,4.10
2018-04-13T06:59:06.520Z,4.30
2018-04-13T07:00:06.464Z,5.00
2018-04-13T07:01:06.428Z,4.60
2018-04-13T07:02:06.398Z,4.80
2018-04-13T07:03:06.334Z,4.30
2018-04-13T07:04:06.331Z,4.50
2018-04-13T07:05:06.288Z,5.00
2018-04-13T07:06:06.260Z,4.40
2018-04-13T07:07:06.226Z,4.60
2018-04-13T07:08:06.197Z,4.30
2018-04-13T07:09:06.193Z,3.90
2018-04-13T07:10:06.109Z,4.00
2018-04-13T07:11:06.090Z,4.70
2018-04-13T07:12:06.022Z,4.40
2018-04-13T07:13:06.004Z,4.20
2018-04-13T07:14:05.960Z,4.40
2018-04-13T07:15:05.941Z,4.30
2018-04-13T07:16:05.902Z,4.10
2018-04-13T07:17:05.859Z,4.50
2018-04-13T07:18:05.848Z,4.20
2018-04-13T07:19:05.808Z,4.20
2018-04-13T07:20:05.788Z,4.00
2018-04-13T07:21:05.718Z,4.30
2018-04-13T07:22:05.665Z,4.20
2018-04-13T07:23:05.669Z,4.20
2018-04-13T07:24:05.634Z,5.40
2018-04-13T07:25:05.606Z,5.30
2018-04-13T07:26:05.569Z,4.40
2018-04-13T07:27:05.496Z,4.30
2018-04-13T07:28:05.471Z,4.00
2018-04-13T07:29:05.447Z,4.00
2018-04-13T07:30:05.452Z,4.20
2018-04-13T07:31:05.383Z,4.10
2018-04-13T07:32:05.736Z,3.90
2018-04-13T07:33:05.291Z,4.20
2018-04-13T07:34:05.281Z,4.30
2018-04-13T07:35:05.450Z,5.30
2018-04-13T07:36:05.202Z,5.60
2018-04-13T07:37:05.159Z,5.00
2018-04-13T07:38:05.120Z,4.70
2018-04-13T07:39:05.085Z,4.90
2018-04-13T07:40:05.067Z,5.20
2018-04-13T07:41:05.016Z,4.50
2018-04-13T07:42:05.005Z,4.10
2018-04-13T07:43:04.956Z,3.90
2018-04-13T07:44:04.928Z,4.20
2018-04-13T07:45:04.919Z,4.10
2018-04-13T07:46:05.149Z,4.50
2018-04-13T07:47:04.810Z,4.20
2018-04-13T07:48:04.777Z,4.40
2018-04-13T07:49:04.743Z,4.10
2018-04-13T07:50:04.730Z,5.00
2018-04-13T07:51:04.666Z,4.60
2018-04-13T07:52:04.636Z,4.80
2018-04-13T07:53:04.641Z,4.30
2018-04-13T07:54:04.571Z,4.40
2018-04-13T07:55:04.550Z,5.80
2018-04-13T07:56:04.508Z,5.40
2018-04-13T07:57:04.459Z,5.90
2018-04-13T07:58:04.443Z,5.00
2018-04-13T07:59:04.411Z,3.70
2018-04-13T08:00:04.372Z,3.90
2018-04-13T08:01:04.363Z,3.60
2018-04-13T08:02:04.560Z,3.80
2018-04-13T08:03:04.277Z,3.80
2018-04-13T08:04:04.246Z,4.00
2018-04-13T08:05:04.169Z,4.00
2018-04-13T08:06:04.143Z,5.90
2018-04-13T08:07:04.173Z,5.80
2018-04-13T08:08:04.101Z,5.60
2018-04-13T08:09:04.096Z,5.90
2018-04-13T08:10:04.289Z,5.70
2018-04-13T08:11:03.974Z,5.60
2018-04-13T08:12:03.951Z,5.20
2018-04-13T08:13:03.916Z,5.30
2018-04-13T08:14:03.917Z,5.30
2018-04-13T08:15:03.877Z,5.30
2018-04-13T08:16:03.829Z,5.60
2018-04-13T08:17:03.791Z,4.30
2018-04-13T08:18:03.774Z,4.00
2018-04-13T08:19:03.703Z,4.30
2018-04-13T08:20:03.669Z,5.20
2018-04-13T08:21:03.627Z,5.50
2018-04-13T08:22:03.612Z,6.00
2018-04-13T08:23:03.590Z,6.20
2018-04-13T08:24:03.540Z,5.60
2018-04-13T08:25:03.520Z,4.40
2018-04-13T08:26:03.518Z,5.80
2018-04-13T08:27:03.450Z,4.90
2018-04-13T08:28:03.441Z,5.80
2018-04-13T08:29:03.393Z,5.80
2018-04-13T08:30:03.389Z,6.10
2018-04-13T08:31:03.319Z,5.90
2018-04-13T08:32:03.297Z,5.60
2018-04-13T08:33:03.263Z,5.80
2018-04-13T08:34:03.243Z,5.60
2018-04-13T08:35:03.190Z,5.60
2018-04-13T08:36:03.142Z,5.60
2018-04-13T08:37:03.142Z,5.70
2018-04-13T08:38:03.080Z,5.70
2018-04-13T08:39:03.055Z,5.20
2018-04-13T08:40:03.022Z,5.40
2018-04-13T08:41:02.985Z,5.00
2018-04-13T08:42:02.952Z,4.70
2018-04-13T08:43:02.915Z,4.80
2018-04-13T08:44:02.871Z,4.80
2018-04-13T08:45:02.901Z,4.60
2018-04-13T08:46:02.847Z,4.10
2018-04-13T08:47:02.810Z,4.60
2018-04-13T08:48:02.744Z,5.30
2018-04-13T08:49:02.810Z,5.00
2018-04-13T08:50:02.710Z,5.20
2018-04-13T08:51:02.666Z,6.60
2018-04-13T08:52:02.668Z,4.40
2018-04-13T08:53:02.657Z,4.20
2018-04-13T08:54:02.604Z,3.90
2018-04-13T08:55:02.550Z,4.80
2018-04-13T08:56:02.494Z,3.90
2018-04-13T08:57:02.496Z,4.60
2018-04-13T08:58:02.468Z,4.80
2018-04-13T08:59:02.415Z,4.20
2018-04-13T09:00:02.401Z,4.50
2018-04-13T09:01:02.360Z,4.50
2018-04-13T09:02:02.285Z,4.50
2018-04-13T09:03:02.289Z,4.40
2018-04-13T09:04:02.234Z,4.80
2018-04-13T09:05:02.182Z,4.50
2018-04-13T09:06:02.180Z,4.30
2018-04-13T09:07:02.155Z,4.70
2018-04-13T09:08:02.107Z,4.70
2018-04-13T09:09:02.077Z,5.30
2018-04-13T09:10:02.037Z,4.60
2018-04-13T09:11:02.026Z,4.70
2018-04-13T09:12:01.969Z,4.50
2018-04-13T09:13:02.015Z,4.60
2018-04-13T09:14:01.911Z,4.60
2018-04-13T09:15:01.858Z,4.50
2018-04-13T09:16:01.837Z,4.50
2018-04-13T09:17:01.794Z,4.90
2018-04-13T09:18:01.748Z,4.60
2018-04-13T09:19:01.725Z,5.20
2018-04-13T09:20:01.694Z,8.20
2018-04-13T09:21:01.654Z,7.70
2018-04-13T09:22:01.640Z,6.60
2018-04-13T09:23:01.593Z,7.30
2018-04-13T09:24:01.549Z,8.20
2018-04-13T09:25:01.530Z,6.40
2018-04-13T09:26:01.489Z,6.30
2018-04-13T09:27:01.479Z,6.30
2018-04-13T09:28:01.737Z,7.60
2018-04-13T09:29:01.393Z,8.20
2018-04-13T09:30:01.356Z,7.60
2018-04-13T09:31:01.352Z,8.00
2018-04-13T09:32:01.283Z,8.10
2018-04-13T09:33:01.280Z,7.30
2018-04-13T09:34:01.229Z,6.70
2018-04-13T09:35:01.181Z,6.80
2018-04-13T09:36:01.154Z,7.30
2018-04-13T09:37:01.122Z,6.70
2018-04-13T09:38:02.823Z,6.30
2018-04-13T09:39:01.072Z,6.10
2018-04-13T09:40:01.055Z,6.50
2018-04-13T09:41:01.035Z,6.30
2018-04-13T09:42:00.947Z,5.90
2018-04-13T09:43:00.921Z,5.60
2018-04-13T09:44:00.887Z,6.40
2018-04-13T09:45:00.833Z,6.00
2018-04-13T09:46:00.807Z,5.60
2018-04-13T09:47:00.806Z,5.40
2018-04-13T09:48:00.786Z,5.50
2018-04-13T09:49:00.714Z,5.70
2018-04-13T09:50:00.700Z,6.00
2018-04-13T09:51:00.656Z,5.80
2018-04-13T09:52:00.635Z,6.00
2018-04-13T09:53:00.592Z,4.80
2018-04-13T09:54:00.573Z,5.70
2018-04-13T09:55:00.523Z,5.60
2018-04-13T09:56:00.500Z,5.00
2018-04-13T09:57:00.483Z,5.80
2018-04-13T09:58:00.422Z,4.60
2018-04-13T09:59:00.398Z,4.70
2018-04-13T10:00:00.388Z,4.30
2018-04-13T10:01:00.334Z,4.30
2018-04-13T10:02:00.308Z,4.40
2018-04-13T10:03:00.267Z,4.90
2018-04-13T10:04:00.247Z,5.80
2018-04-13T10:05:00.232Z,6.00
2018-04-13T10:06:00.194Z,5.70
2018-04-13T10:07:00.131Z,5.60
2018-04-13T10:08:00.133Z,5.60
2018-04-13T10:09:00.088Z,5.60
2018-04-13T10:10:00.041Z,5.80
2018-04-13T10:11:00.013Z,5.50
2018-04-13T10:11:59.980Z,5.60
2018-04-13T10:12:59.953Z,5.60
2018-04-13T10:13:59.958Z,5.80
2018-04-13T10:14:59.885Z,5.70
2018-04-13T10:15:59.862Z,6.00
2018-04-13T10:17:00.757Z,5.50
2018-04-13T10:17:59.788Z,6.30
2018-04-13T10:18:59.773Z,5.70
2018-04-13T10:19:59.729Z,5.30
2018-04-13T10:20:59.710Z,5.40
2018-04-13T10:21:59.680Z,6.50
2018-04-13T10:22:59.624Z,6.20
2018-04-13T10:23:59.592Z,7.80
2018-04-13T10:24:59.579Z,7.50
2018-04-13T10:25:59.548Z,9.10
2018-04-13T10:26:59.492Z,9.30
2018-04-13T10:27:59.478Z,5.40
2018-04-13T10:28:59.440Z,6.30
2018-04-13T10:29:59.419Z,7.20
2018-04-13T10:30:59.377Z,8.60
2018-04-13T10:31:59.344Z,6.90
2018-04-13T10:32:59.296Z,6.90
2018-04-13T10:33:59.349Z,6.10
2018-04-13T10:34:59.259Z,5.20
2018-04-13T10:35:59.232Z,5.60
2018-04-13T10:36:59.177Z,5.80
2018-04-13T10:37:59.194Z,5.90
2018-04-13T10:38:59.136Z,5.30
2018-04-13T10:39:59.094Z,6.20
2018-04-13T10:40:59.066Z,6.40
2018-04-13T10:41:59.030Z,6.00
2018-04-13T10:42:59.014Z,6.30
2018-04-13T10:43:58.983Z,5.80
2018-04-13T10:44:58.932Z,5.60
2018-04-13T10:45:58.918Z,6.00
2018-04-13T10:46:58.876Z,5.40
2018-04-13T10:47:58.872Z,5.60
2018-04-13T10:48:58.828Z,5.80
2018-04-13T10:49:58.799Z,5.50
2018-04-13T10:50:58.776Z,5.70
2018-04-13T10:51:58.741Z,5.60
2018-04-13T10:52:58.673Z,5.80
2018-04-13T10:53:58.676Z,5.50
2018-04-13T10:54:58.624Z,5.20
2018-04-13T10:55:58.591Z,5.10
2018-04-13T10:56:58.563Z,5.20
2018-04-13T10:57:58.518Z,5.20
2018-04-13T10:58:58.491Z,5.40
2018-04-13T10:59:58.451Z,5.50
2018-04-13T11:00:58.416Z,6.20
2018-04-13T11:01:58.392Z,5.30
2018-04-13T11:02:58.355Z,5.30
2018-04-13T11:03:58.341Z,5.50
2018-04-13T11:04:58.304Z,5.40
2018-04-13T11:05:58.263Z,5.60
2018-04-13T11:06:58.254Z,5.20
2018-04-13T11:07:58.224Z,5.80
2018-04-13T11:08:58.160Z,6.30
2018-04-13T11:09:58.141Z,5.50
2018-04-13T11:10:58.128Z,6.10
2018-04-13T11:11:58.045Z,5.60
2018-04-13T11:12:58.025Z,6.20
2018-04-13T11:13:57.992Z,5.60
2018-04-13T11:14:57.970Z,5.50
2018-04-13T11:15:57.939Z,5.20
2018-04-13T11:16:57.911Z,6.20
2018-04-13T11:17:57.880Z,5.60
2018-04-13T11:18:57.855Z,5.70
2018-04-13T11:19:57.802Z,5.20
2018-04-13T11:20:57.771Z,5.50
2018-04-13T11:21:57.771Z,5.80
2018-04-13T11:22:57.712Z,5.40
2018-04-13T11:23:57.675Z,5.00
2018-04-13T11:24:57.640Z,5.50
2018-04-13T11:25:57.618Z,5.60
2018-04-13T11:26:57.580Z,5.50
2018-04-13T11:27:57.540Z,5.60
2018-04-13T11:28:57.528Z,5.10
2018-04-13T11:29:57.502Z,5.40
2018-04-13T11:30:57.449Z,4.80
2018-04-13T11:31:57.423Z,5.70
2018-04-13T11:32:57.414Z,4.80
2018-04-13T11:33:57.384Z,5.20
2018-04-13T11:34:57.375Z,4.40
2018-04-13T11:35:57.294Z,4.90
2018-04-13T11:36:57.256Z,4.70
2018-04-13T11:37:57.259Z,4.20
2018-04-13T11:38:57.204Z,4.00
2018-04-13T11:39:57.173Z,4.30
2018-04-13T11:40:57.160Z,4.20
2018-04-13T11:41:57.120Z,4.10
2018-04-13T11:42:57.069Z,3.40
2018-04-13T11:43:57.066Z,2.90
2018-04-13T11:44:57.018Z,3.10
2018-04-13T11:45:57.006Z,3.50
2018-04-13T11:46:56.951Z,3.70
2018-04-13T11:47:56.946Z,2.80
2018-04-13T11:48:56.927Z,3.10
2018-04-13T11:49:56.871Z,3.30
2018-04-13T11:50:56.848Z,3.30
2018-04-13T11:51:56.800Z,2.80
2018-04-13T11:52:56.787Z,2.90
2018-04-13T11:53:56.740Z,2.80
2018-04-13T11:54:56.718Z,2.80
2018-04-13T11:55:56.691Z,3.00
2018-04-13T11:56:56.677Z,3.00
2018-04-13T11:57:56.604Z,3.20
2018-04-13T11:58:56.666Z,2.50
2018-04-13T11:59:56.572Z,3.00
2018-04-13T12:00:56.507Z,3.10
2018-04-13T12:01:56.496Z,3.00
2018-04-13T12:02:56.458Z,2.90
2018-04-13T12:03:56.453Z,2.80
2018-04-13T12:04:56.422Z,3.20
2018-04-13T12:05:56.357Z,2.80
2018-04-13T12:06:56.328Z,3.40
2018-04-13T12:07:56.296Z,3.00
2018-04-13T12:08:56.269Z,2.80
2018-04-13T12:09:56.230Z,2.90
2018-04-13T12:10:56.202Z,3.00
2018-04-13T12:11:56.189Z,2.70
2018-04-13T12:12:56.169Z,3.20
2018-04-13T12:13:56.114Z,2.90
2018-04-13T12:14:56.072Z,2.80
2018-04-13T12:15:56.043Z,2.60
2018-04-13T12:16:56.009Z,2.60
2018-04-13T12:17:55.969Z,3.00
2018-04-13T12:18:55.951Z,2.20
2018-04-13T12:19:55.924Z,2.30
2018-04-13T12:20:55.904Z,2.40
2018-04-13T12:21:55.869Z,2.10
2018-04-13T12:22:55.829Z,2.40
2018-04-13T12:23:55.799Z,2.20
2018-04-13T12:24:55.750Z,2.20
2018-04-13T12:25:55.738Z,1.90
2018-04-13T12:26:55.688Z,2.20
2018-04-13T12:27:55.681Z,2.30
2018-04-13T12:28:55.631Z,2.00
2018-04-13T12:29:55.620Z,1.70
2018-04-13T12:30:55.570Z,2.00
2018-04-13T12:31:55.565Z,1.90
2018-04-13T12:32:55.512Z,1.80
2018-04-13T12:33:55.471Z,1.90
2018-04-13T12:34:55.449Z,1.80
2018-04-13T12:35:55.399Z,1.90
2018-04-13T12:36:55.386Z,1.80
2018-04-13T12:37:55.365Z,1.30
2018-04-13T12:38:55.359Z,1.70
2018-04-13T12:39:55.283Z,1.50
2018-04-13T12:40:55.264Z,1.50
2018-04-13T12:41:55.266Z,1.40
2018-04-13T12:42:55.227Z,1.60
2018-04-13T12:43:55.188Z,1.30
2018-04-13T12:44:55.176Z,1.20
2018-04-13T12:45:55.104Z,1.40
2018-04-13T12:46:55.090Z,1.30
2018-04-13T12:47:55.061Z,1.40
2018-04-13T12:48:55.031Z,1.40
2018-04-13T12:49:55.018Z,1.40
2018-04-13T12:50:54.953Z,1.20
2018-04-13T12:51:54.932Z,1.30
2018-04-13T12:52:54.921Z,1.20
2018-04-13T12:53:54.933Z,1.00
2018-04-13T12:54:55.048Z,1.30
2018-04-13T12:55:54.868Z,1.40
2018-04-13T12:56:54.838Z,1.20
2018-04-13T12:57:54.771Z,1.10
2018-04-13T12:58:54.711Z,1.10
2018-04-13T12:59:54.684Z,1.10
2018-04-13T13:00:54.698Z,1.00
2018-04-13T13:01:54.643Z,1.00
2018-04-13T13:02:54.593Z,0.90
2018-04-13T13:03:54.559Z,0.90
2018-04-13T13:04:54.554Z,0.80
2018-04-13T13:05:54.524Z,0.90
2018-04-13T13:06:54.535Z,0.90
2018-04-13T13:07:54.460Z,0.80
2018-04-13T13:08:54.424Z,0.90
2018-04-13T13:09:54.441Z,0.70
2018-04-13T13:10:54.376Z,0.90
2018-04-13T13:11:54.361Z,0.80
2018-04-13T13:12:54.326Z,0.70
2018-04-13T13:13:54.286Z,0.70
2018-04-13T13:14:54.272Z,1.00
2018-04-13T13:15:54.234Z,0.70
2018-04-13T13:16:54.232Z,0.70